sensor_id;sensor_type;location;lat;lon;timestamp;temperature;humidity
14670;DHT22;7423;48.722;9.350;2023-05-23T00:00:14;20.20;99.90
14670;DHT22;7423;48.722;9.350;2023-05-23T00:02:41;20.10;99.90
14670;DHT22;7423;48.722;9.350;2023-05-23T00:05:08;20.10;99.90
14670;DHT22;7423;48.722;9.350;2023-05-23T00:07:35;20.00;99.90
14670;DHT22;7423;48.722;9.350;2023-05-23T00:10:03;20.00;99.90
14670;DHT22;7423;48.722;9.350;2023-05-23T00:12:30;20.00;99.90
14670;DHT22;7423;48.722;9.350;2023-05-23T00:14:58;20.10;99.90
14670;DHT22;7423;48.722;9.350;2023-05-23T00:17:26;20.00;99.90
14670;DHT22;7423;48.722;9.350;2023-05-23T00:19:53;20.00;99.90
14670;DHT22;7423;48.722;9.350;2023-05-23T00:22:21;20.00;99.90
14670;DHT22;7423;48.722;9.350;2023-05-23T00:24:48;20.00;99.90
14670;DHT22;7423;48.722;9.350;2023-05-23T00:27:15;20.00;99.90
14670;DHT22;7423;48.722;9.350;2023-05-23T00:29:42;19.90;99.90
14670;DHT22;7423;48.722;9.350;2023-05-23T00:32:09;19.90;99.90
14670;DHT22;7423;48.722;9.350;2023-05-23T00:34:36;19.90;99.90
14670;DHT22;7423;48.722;9.350;2023-05-23T00:37:04;19.80;99.90
14670;DHT22;7423;48.722;9.350;2023-05-23T00:39:31;19.80;99.90
14670;DHT22;7423;48.722;9.350;2023-05-23T00:41:58;19.80;99.90
14670;DHT22;7423;48.722;9.350;2023-05-23T00:44:24;19.80;99.90
14670;DHT22;7423;48.722;9.350;2023-05-23T00:46:54;19.70;99.90
14670;DHT22;7423;48.722;9.350;2023-05-23T00:49:22;19.70;99.90
14670;DHT22;7423;48.722;9.350;2023-05-23T00:51:50;19.70;99.90
14670;DHT22;7423;48.722;9.350;2023-05-23T00:54:23;19.70;99.90
14670;DHT22;7423;48.722;9.350;2023-05-23T00:56:50;19.70;99.90
14670;DHT22;7423;48.722;9.350;2023-05-23T00:59:17;19.70;99.90
14670;DHT22;7423;48.722;9.350;2023-05-23T01:01:47;19.70;99.90
14670;DHT22;7423;48.722;9.350;2023-05-23T01:04:16;19.70;99.90
14670;DHT22;7423;48.722;9.350;2023-05-23T01:06:45;19.70;99.90
14670;DHT22;7423;48.722;9.350;2023-05-23T01:09:18;19.60;99.90
14670;DHT22;7423;48.722;9.350;2023-05-23T01:12:52;19.70;99.90
14670;DHT22;7423;48.722;9.350;2023-05-23T01:15:08;19.60;99.90
14670;DHT22;7423;48.722;9.350;2023-05-23T01:20:44;19.50;99.90
14670;DHT22;7423;48.722;9.350;2023-05-23T01:23:29;19.40;99.90
14670;DHT22;7423;48.722;9.350;2023-05-23T01:26:26;19.40;99.90
14670;DHT22;7423;48.722;9.350;2023-05-23T01:29:03;19.40;99.90
14670;DHT22;7423;48.722;9.350;2023-05-23T01:31:42;19.40;99.90
14670;DHT22;7423;48.722;9.350;2023-05-23T01:34:11;19.40;99.90
14670;DHT22;7423;48.722;9.350;2023-05-23T01:36:43;19.40;99.90
14670;DHT22;7423;48.722;9.350;2023-05-23T01:39:10;19.40;99.90
14670;DHT22;7423;48.722;9.350;2023-05-23T01:41:37;19.40;99.90
14670;DHT22;7423;48.722;9.350;2023-05-23T01:44:04;19.40;99.90
14670;DHT22;7423;48.722;9.350;2023-05-23T01:46:32;19.30;99.90
14670;DHT22;7423;48.722;9.350;2023-05-23T01:49:02;19.30;99.90
14670;DHT22;7423;48.722;9.350;2023-05-23T01:51:30;19.30;99.90
14670;DHT22;7423;48.722;9.350;2023-05-23T01:53:57;19.30;99.90
14670;DHT22;7423;48.722;9.350;2023-05-23T01:56:25;19.30;99.90
14670;DHT22;7423;48.722;9.350;2023-05-23T01:58:53;19.30;99.90
14670;DHT22;7423;48.722;9.350;2023-05-23T02:01:20;19.30;99.90
14670;DHT22;7423;48.722;9.350;2023-05-23T02:03:47;19.30;99.90
14670;DHT22;7423;48.722;9.350;2023-05-23T02:06:14;18.90;99.90
14670;DHT22;7423;48.722;9.350;2023-05-23T02:08:41;19.20;99.90
14670;DHT22;7423;48.722;9.350;2023-05-23T02:11:08;19.20;99.90
14670;DHT22;7423;48.722;9.350;2023-05-23T02:13:36;19.20;99.90
14670;DHT22;7423;48.722;9.350;2023-05-23T02:16:03;19.20;99.90
14670;DHT22;7423;48.722;9.350;2023-05-23T02:18:30;19.20;99.90
14670;DHT22;7423;48.722;9.350;2023-05-23T02:20:57;19.20;99.90
14670;DHT22;7423;48.722;9.350;2023-05-23T02:23:24;19.20;99.90
14670;DHT22;7423;48.722;9.350;2023-05-23T02:25:50;19.10;99.90
14670;DHT22;7423;48.722;9.350;2023-05-23T02:28:18;19.10;99.90
14670;DHT22;7423;48.722;9.350;2023-05-23T02:30:45;19.10;99.90
14670;DHT22;7423;48.722;9.350;2023-05-23T02:33:12;19.10;99.90
14670;DHT22;7423;48.722;9.350;2023-05-23T02:35:39;19.10;99.90
14670;DHT22;7423;48.722;9.350;2023-05-23T02:38:06;19.00;99.90
14670;DHT22;7423;48.722;9.350;2023-05-23T02:40:33;19.00;99.90
14670;DHT22;7423;48.722;9.350;2023-05-23T02:43:00;19.00;99.90
14670;DHT22;7423;48.722;9.350;2023-05-23T02:45:27;19.00;99.90
14670;DHT22;7423;48.722;9.350;2023-05-23T02:47:53;19.00;99.90
14670;DHT22;7423;48.722;9.350;2023-05-23T02:50:20;19.00;99.90
14670;DHT22;7423;48.722;9.350;2023-05-23T02:52:47;19.00;99.90
14670;DHT22;7423;48.722;9.350;2023-05-23T02:55:14;19.00;99.90
14670;DHT22;7423;48.722;9.350;2023-05-23T02:57:41;19.00;99.90
14670;DHT22;7423;48.722;9.350;2023-05-23T03:00:08;19.00;99.90
14670;DHT22;7423;48.722;9.350;2023-05-23T03:02:37;19.00;99.90
14670;DHT22;7423;48.722;9.350;2023-05-23T03:05:04;18.90;99.90
14670;DHT22;7423;48.722;9.350;2023-05-23T03:07:32;18.90;99.90
14670;DHT22;7423;48.722;9.350;2023-05-23T03:09:59;18.90;99.90
14670;DHT22;7423;48.722;9.350;2023-05-23T03:12:29;18.90;99.90
14670;DHT22;7423;48.722;9.350;2023-05-23T03:14:56;18.90;99.90
14670;DHT22;7423;48.722;9.350;2023-05-23T03:17:24;18.90;99.90
14670;DHT22;7423;48.722;9.350;2023-05-23T03:19:51;18.90;99.90
14670;DHT22;7423;48.722;9.350;2023-05-23T03:22:19;18.90;99.90
14670;DHT22;7423;48.722;9.350;2023-05-23T03:24:46;18.90;99.90
14670;DHT22;7423;48.722;9.350;2023-05-23T03:27:13;18.90;99.90
14670;DHT22;7423;48.722;9.350;2023-05-23T03:29:40;18.90;99.90
14670;DHT22;7423;48.722;9.350;2023-05-23T03:32:07;18.90;99.90
14670;DHT22;7423;48.722;9.350;2023-05-23T03:34:34;18.90;99.90
14670;DHT22;7423;48.722;9.350;2023-05-23T03:37:02;18.80;99.90
14670;DHT22;7423;48.722;9.350;2023-05-23T03:39:29;18.90;99.90
14670;DHT22;7423;48.722;9.350;2023-05-23T03:41:56;18.90;99.90
14670;DHT22;7423;48.722;9.350;2023-05-23T03:44:24;18.90;99.90
14670;DHT22;7423;48.722;9.350;2023-05-23T03:46:51;18.90;99.90
14670;DHT22;7423;48.722;9.350;2023-05-23T03:49:18;18.90;99.90
14670;DHT22;7423;48.722;9.350;2023-05-23T03:51:45;18.90;99.90
14670;DHT22;7423;48.722;9.350;2023-05-23T03:54:12;18.90;99.90
14670;DHT22;7423;48.722;9.350;2023-05-23T03:56:39;19.00;99.90
14670;DHT22;7423;48.722;9.350;2023-05-23T03:59:06;20.00;99.90
14670;DHT22;7423;48.722;9.350;2023-05-23T04:01:33;19.10;99.90
14670;DHT22;7423;48.722;9.350;2023-05-23T04:04:00;19.00;99.90
14670;DHT22;7423;48.722;9.350;2023-05-23T04:06:27;19.10;99.90
14670;DHT22;7423;48.722;9.350;2023-05-23T04:08:56;19.00;99.90
14670;DHT22;7423;48.722;9.350;2023-05-23T04:11:23;19.10;99.90
14670;DHT22;7423;48.722;9.350;2023-05-23T04:13:50;19.10;99.90
14670;DHT22;7423;48.722;9.350;2023-05-23T04:16:19;19.10;99.90
14670;DHT22;7423;48.722;9.350;2023-05-23T04:18:49;19.10;99.90
14670;DHT22;7423;48.722;9.350;2023-05-23T04:21:17;19.10;99.90
14670;DHT22;7423;48.722;9.350;2023-05-23T04:23:44;19.10;99.90
14670;DHT22;7423;48.722;9.350;2023-05-23T04:26:11;19.10;99.90
14670;DHT22;7423;48.722;9.350;2023-05-23T04:28:38;19.10;99.90
14670;DHT22;7423;48.722;9.350;2023-05-23T04:31:05;19.20;99.90
14670;DHT22;7423;48.722;9.350;2023-05-23T04:33:32;19.20;99.90
14670;DHT22;7423;48.722;9.350;2023-05-23T04:36:00;19.20;99.90
14670;DHT22;7423;48.722;9.350;2023-05-23T04:38:27;19.20;99.90
14670;DHT22;7423;48.722;9.350;2023-05-23T04:40:54;18.90;99.90
14670;DHT22;7423;48.722;9.350;2023-05-23T04:43:23;19.20;99.90
14670;DHT22;7423;48.722;9.350;2023-05-23T04:45:52;19.20;99.90
14670;DHT22;7423;48.722;9.350;2023-05-23T04:48:23;19.20;99.90
14670;DHT22;7423;48.722;9.350;2023-05-23T04:50:50;19.30;99.90
14670;DHT22;7423;48.722;9.350;2023-05-23T04:53:18;19.30;99.90
14670;DHT22;7423;48.722;9.350;2023-05-23T04:55:45;19.30;99.90
14670;DHT22;7423;48.722;9.350;2023-05-23T04:58:12;19.30;99.90
14670;DHT22;7423;48.722;9.350;2023-05-23T05:00:39;19.30;99.90
14670;DHT22;7423;48.722;9.350;2023-05-23T05:03:06;19.30;99.90
14670;DHT22;7423;48.722;9.350;2023-05-23T05:05:35;19.30;99.90
14670;DHT22;7423;48.722;9.350;2023-05-23T05:08:02;19.30;99.90
14670;DHT22;7423;48.722;9.350;2023-05-23T05:10:29;19.40;99.90
14670;DHT22;7423;48.722;9.350;2023-05-23T05:12:56;19.40;99.90
14670;DHT22;7423;48.722;9.350;2023-05-23T05:15:23;19.40;99.90
14670;DHT22;7423;48.722;9.350;2023-05-23T05:17:50;19.40;99.90
14670;DHT22;7423;48.722;9.350;2023-05-23T05:20:17;19.40;99.90
14670;DHT22;7423;48.722;9.350;2023-05-23T05:22:44;19.40;99.90
14670;DHT22;7423;48.722;9.350;2023-05-23T05:25:11;19.50;99.90
14670;DHT22;7423;48.722;9.350;2023-05-23T05:27:39;19.50;99.90
14670;DHT22;7423;48.722;9.350;2023-05-23T05:30:06;19.50;99.90
14670;DHT22;7423;48.722;9.350;2023-05-23T05:32:34;19.50;99.90
14670;DHT22;7423;48.722;9.350;2023-05-23T05:35:01;19.50;99.90
14670;DHT22;7423;48.722;9.350;2023-05-23T05:37:29;19.60;99.90
14670;DHT22;7423;48.722;9.350;2023-05-23T05:39:56;21.90;99.90
14670;DHT22;7423;48.722;9.350;2023-05-23T05:42:24;19.60;99.90
14670;DHT22;7423;48.722;9.350;2023-05-23T05:44:51;19.60;99.90
14670;DHT22;7423;48.722;9.350;2023-05-23T05:47:18;19.60;99.90
14670;DHT22;7423;48.722;9.350;2023-05-23T05:49:45;19.70;99.90
14670;DHT22;7423;48.722;9.350;2023-05-23T05:52:12;19.70;99.90
14670;DHT22;7423;48.722;9.350;2023-05-23T05:54:39;19.70;99.90
14670;DHT22;7423;48.722;9.350;2023-05-23T05:57:05;19.70;99.90
14670;DHT22;7423;48.722;9.350;2023-05-23T05:59:32;19.70;99.90
14670;DHT22;7423;48.722;9.350;2023-05-23T06:01:59;19.60;99.90
14670;DHT22;7423;48.722;9.350;2023-05-23T06:04:26;19.70;99.90
14670;DHT22;7423;48.722;9.350;2023-05-23T06:06:53;19.70;99.90
14670;DHT22;7423;48.722;9.350;2023-05-23T06:09:20;19.80;99.90
14670;DHT22;7423;48.722;9.350;2023-05-23T06:11:47;19.80;99.90
14670;DHT22;7423;48.722;9.350;2023-05-23T06:14:14;19.80;99.90
14670;DHT22;7423;48.722;9.350;2023-05-23T06:16:41;19.80;99.90
14670;DHT22;7423;48.722;9.350;2023-05-23T06:19:09;19.90;99.90
14670;DHT22;7423;48.722;9.350;2023-05-23T06:21:36;19.90;99.90
14670;DHT22;7423;48.722;9.350;2023-05-23T06:24:03;19.90;99.90
14670;DHT22;7423;48.722;9.350;2023-05-23T06:26:29;19.90;99.90
14670;DHT22;7423;48.722;9.350;2023-05-23T06:28:56;19.90;99.90
14670;DHT22;7423;48.722;9.350;2023-05-23T06:31:23;19.90;99.90
14670;DHT22;7423;48.722;9.350;2023-05-23T06:33:50;20.00;99.90
14670;DHT22;7423;48.722;9.350;2023-05-23T06:36:17;20.00;99.90
14670;DHT22;7423;48.722;9.350;2023-05-23T06:38:44;20.00;99.90
14670;DHT22;7423;48.722;9.350;2023-05-23T06:41:11;20.00;99.90
14670;DHT22;7423;48.722;9.350;2023-05-23T06:43:38;20.00;99.90
14670;DHT22;7423;48.722;9.350;2023-05-23T06:46:05;20.00;99.90
14670;DHT22;7423;48.722;9.350;2023-05-23T06:48:32;20.00;99.90
14670;DHT22;7423;48.722;9.350;2023-05-23T06:50:59;20.00;99.90
14670;DHT22;7423;48.722;9.350;2023-05-23T06:53:26;20.00;99.90
14670;DHT22;7423;48.722;9.350;2023-05-23T06:55:53;20.00;99.90
14670;DHT22;7423;48.722;9.350;2023-05-23T06:58:21;20.00;99.90
14670;DHT22;7423;48.722;9.350;2023-05-23T07:00:50;20.00;99.90
14670;DHT22;7423;48.722;9.350;2023-05-23T07:03:17;20.00;99.90
14670;DHT22;7423;48.722;9.350;2023-05-23T07:05:44;20.00;99.90
14670;DHT22;7423;48.722;9.350;2023-05-23T07:08:11;20.00;99.90
14670;DHT22;7423;48.722;9.350;2023-05-23T07:10:38;20.00;99.90
14670;DHT22;7423;48.722;9.350;2023-05-23T07:13:07;20.00;99.90
14670;DHT22;7423;48.722;9.350;2023-05-23T07:15:34;20.10;99.90
14670;DHT22;7423;48.722;9.350;2023-05-23T07:18:01;20.00;99.90
14670;DHT22;7423;48.722;9.350;2023-05-23T07:20:28;20.10;99.90
14670;DHT22;7423;48.722;9.350;2023-05-23T07:22:55;20.10;99.90
14670;DHT22;7423;48.722;9.350;2023-05-23T07:25:22;20.10;99.90
14670;DHT22;7423;48.722;9.350;2023-05-23T07:27:49;20.10;99.90
14670;DHT22;7423;48.722;9.350;2023-05-23T07:30:20;20.10;99.90
14670;DHT22;7423;48.722;9.350;2023-05-23T07:32:48;20.10;99.90
14670;DHT22;7423;48.722;9.350;2023-05-23T07:35:15;20.10;99.90
14670;DHT22;7423;48.722;9.350;2023-05-23T07:37:43;19.90;99.90
14670;DHT22;7423;48.722;9.350;2023-05-23T07:40:10;20.00;99.90
14670;DHT22;7423;48.722;9.350;2023-05-23T07:42:37;20.00;99.90
14670;DHT22;7423;48.722;9.350;2023-05-23T07:45:04;20.10;99.90
14670;DHT22;7423;48.722;9.350;2023-05-23T07:47:31;20.10;99.90
14670;DHT22;7423;48.722;9.350;2023-05-23T07:49:58;20.10;99.90
14670;DHT22;7423;48.722;9.350;2023-05-23T07:52:31;20.10;99.90
14670;DHT22;7423;48.722;9.350;2023-05-23T07:54:58;19.90;99.90
14670;DHT22;7423;48.722;9.350;2023-05-23T07:57:25;20.00;99.90
14670;DHT22;7423;48.722;9.350;2023-05-23T07:59:52;20.00;99.90
14670;DHT22;7423;48.722;9.350;2023-05-23T08:02:19;20.00;99.90
14670;DHT22;7423;48.722;9.350;2023-05-23T08:04:47;19.90;99.90
14670;DHT22;7423;48.722;9.350;2023-05-23T08:07:15;19.90;99.90
14670;DHT22;7423;48.722;9.350;2023-05-23T08:09:44;19.90;99.90
14670;DHT22;7423;48.722;9.350;2023-05-23T08:12:11;19.80;99.90
14670;DHT22;7423;48.722;9.350;2023-05-23T08:14:38;19.60;99.90
14670;DHT22;7423;48.722;9.350;2023-05-23T08:17:18;19.60;99.90
14670;DHT22;7423;48.722;9.350;2023-05-23T08:19:45;19.60;99.90
14670;DHT22;7423;48.722;9.350;2023-05-23T08:22:12;19.70;99.90
14670;DHT22;7423;48.722;9.350;2023-05-23T08:24:39;19.70;99.90
14670;DHT22;7423;48.722;9.350;2023-05-23T08:27:05;19.00;99.90
14670;DHT22;7423;48.722;9.350;2023-05-23T08:29:33;19.90;99.90
14670;DHT22;7423;48.722;9.350;2023-05-23T08:32:00;19.90;99.90
14670;DHT22;7423;48.722;9.350;2023-05-23T08:34:28;20.00;99.90
14670;DHT22;7423;48.722;9.350;2023-05-23T08:36:54;20.00;99.90
14670;DHT22;7423;48.722;9.350;2023-05-23T08:39:21;19.90;99.90
14670;DHT22;7423;48.722;9.350;2023-05-23T08:41:49;20.00;99.90
14670;DHT22;7423;48.722;9.350;2023-05-23T08:44:16;20.00;99.90
14670;DHT22;7423;48.722;9.350;2023-05-23T08:46:46;20.00;99.90
14670;DHT22;7423;48.722;9.350;2023-05-23T08:49:16;20.00;99.90
14670;DHT22;7423;48.722;9.350;2023-05-23T08:51:44;20.00;99.90
14670;DHT22;7423;48.722;9.350;2023-05-23T08:54:12;20.00;99.90
14670;DHT22;7423;48.722;9.350;2023-05-23T08:56:40;20.00;99.90
14670;DHT22;7423;48.722;9.350;2023-05-23T08:59:09;20.10;99.90
14670;DHT22;7423;48.722;9.350;2023-05-23T09:01:37;20.00;99.90
14670;DHT22;7423;48.722;9.350;2023-05-23T09:04:06;20.00;99.90
14670;DHT22;7423;48.722;9.350;2023-05-23T09:06:34;19.90;99.90
14670;DHT22;7423;48.722;9.350;2023-05-23T09:09:01;19.90;99.90
14670;DHT22;7423;48.722;9.350;2023-05-23T09:11:28;19.80;99.90
14670;DHT22;7423;48.722;9.350;2023-05-23T09:13:54;19.90;99.90
14670;DHT22;7423;48.722;9.350;2023-05-23T09:16:23;19.90;99.90
14670;DHT22;7423;48.722;9.350;2023-05-23T09:18:50;19.80;99.90
14670;DHT22;7423;48.722;9.350;2023-05-23T09:21:17;19.90;99.90
14670;DHT22;7423;48.722;9.350;2023-05-23T09:23:44;19.90;99.90
14670;DHT22;7423;48.722;9.350;2023-05-23T09:26:11;19.90;99.90
14670;DHT22;7423;48.722;9.350;2023-05-23T09:28:42;19.90;99.90
14670;DHT22;7423;48.722;9.350;2023-05-23T09:31:10;19.80;99.90
14670;DHT22;7423;48.722;9.350;2023-05-23T09:36:08;19.80;99.90
14670;DHT22;7423;48.722;9.350;2023-05-23T09:38:39;19.90;99.90
14670;DHT22;7423;48.722;9.350;2023-05-23T09:41:07;19.70;99.90
14670;DHT22;7423;48.722;9.350;2023-05-23T09:43:57;19.80;99.90
14670;DHT22;7423;48.722;9.350;2023-05-23T09:46:27;19.80;99.90
14670;DHT22;7423;48.722;9.350;2023-05-23T09:48:56;19.90;99.90
14670;DHT22;7423;48.722;9.350;2023-05-23T09:51:25;20.00;99.90
14670;DHT22;7423;48.722;9.350;2023-05-23T09:53:53;20.00;99.90
14670;DHT22;7423;48.722;9.350;2023-05-23T09:56:23;20.00;99.90
14670;DHT22;7423;48.722;9.350;2023-05-23T09:58:50;20.00;99.90
14670;DHT22;7423;48.722;9.350;2023-05-23T10:01:22;20.00;99.90
14670;DHT22;7423;48.722;9.350;2023-05-23T10:03:52;19.90;99.90
14670;DHT22;7423;48.722;9.350;2023-05-23T10:06:32;19.90;99.90
14670;DHT22;7423;48.722;9.350;2023-05-23T10:09:04;20.00;99.90
14670;DHT22;7423;48.722;9.350;2023-05-23T10:14:05;20.00;99.90
14670;DHT22;7423;48.722;9.350;2023-05-23T10:16:48;20.10;99.90
14670;DHT22;7423;48.722;9.350;2023-05-23T10:19:33;20.10;99.90
14670;DHT22;7423;48.722;9.350;2023-05-23T10:22:11;20.20;99.90
14670;DHT22;7423;48.722;9.350;2023-05-23T10:24:40;20.20;99.90
14670;DHT22;7423;48.722;9.350;2023-05-23T10:27:08;20.20;99.90
14670;DHT22;7423;48.722;9.350;2023-05-23T10:29:35;20.10;99.90
14670;DHT22;7423;48.722;9.350;2023-05-23T10:32:05;20.10;99.90
14670;DHT22;7423;48.722;9.350;2023-05-23T10:37:52;20.20;99.90
14670;DHT22;7423;48.722;9.350;2023-05-23T10:43:01;20.20;99.90
14670;DHT22;7423;48.722;9.350;2023-05-23T10:45:42;20.10;99.90
14670;DHT22;7423;48.722;9.350;2023-05-23T10:48:33;20.10;99.90
14670;DHT22;7423;48.722;9.350;2023-05-23T10:51:03;20.20;99.90
14670;DHT22;7423;48.722;9.350;2023-05-23T10:56:17;20.20;99.90
14670;DHT22;7423;48.722;9.350;2023-05-23T10:58:54;20.30;99.90
14670;DHT22;7423;48.722;9.350;2023-05-23T11:01:22;20.30;99.90
14670;DHT22;7423;48.722;9.350;2023-05-23T11:03:51;20.30;99.90
14670;DHT22;7423;48.722;9.350;2023-05-23T11:06:37;20.30;99.90
14670;DHT22;7423;48.722;9.350;2023-05-23T11:09:09;20.30;99.90
14670;DHT22;7423;48.722;9.350;2023-05-23T11:17:17;20.40;99.90
14670;DHT22;7423;48.722;9.350;2023-05-23T11:20:05;20.40;99.90
14670;DHT22;7423;48.722;9.350;2023-05-23T11:22:34;20.50;99.90
14670;DHT22;7423;48.722;9.350;2023-05-23T11:25:05;20.40;99.90
14670;DHT22;7423;48.722;9.350;2023-05-23T11:27:35;20.40;99.90
14670;DHT22;7423;48.722;9.350;2023-05-23T11:32:35;20.50;99.90
14670;DHT22;7423;48.722;9.350;2023-05-23T11:35:07;20.50;99.90
14670;DHT22;7423;48.722;9.350;2023-05-23T11:37:37;20.60;99.90
14670;DHT22;7423;48.722;9.350;2023-05-23T11:42:57;20.50;99.90
14670;DHT22;7423;48.722;9.350;2023-05-23T11:45:31;20.20;99.90
14670;DHT22;7423;48.722;9.350;2023-05-23T11:48:09;20.20;99.90
14670;DHT22;7423;48.722;9.350;2023-05-23T11:50:52;20.40;99.90
14670;DHT22;7423;48.722;9.350;2023-05-23T11:53:21;20.60;99.90
14670;DHT22;7423;48.722;9.350;2023-05-23T11:55:55;20.60;99.90
14670;DHT22;7423;48.722;9.350;2023-05-23T11:58:27;20.70;99.90
14670;DHT22;7423;48.722;9.350;2023-05-23T12:01:00;20.80;99.90
14670;DHT22;7423;48.722;9.350;2023-05-23T12:03:29;20.80;99.90
14670;DHT22;7423;48.722;9.350;2023-05-23T12:05:57;21.00;99.90
14670;DHT22;7423;48.722;9.350;2023-05-23T12:08:24;21.10;99.90
14670;DHT22;7423;48.722;9.350;2023-05-23T12:10:56;21.20;99.90
14670;DHT22;7423;48.722;9.350;2023-05-23T12:13:25;21.20;99.90
14670;DHT22;7423;48.722;9.350;2023-05-23T12:16:00;21.20;99.90
14670;DHT22;7423;48.722;9.350;2023-05-23T12:18:30;21.20;99.90
14670;DHT22;7423;48.722;9.350;2023-05-23T12:21:01;21.10;99.90
14670;DHT22;7423;48.722;9.350;2023-05-23T12:23:31;21.10;99.90
14670;DHT22;7423;48.722;9.350;2023-05-23T12:26:04;21.10;99.90
14670;DHT22;7423;48.722;9.350;2023-05-23T12:28:40;20.90;99.90
14670;DHT22;7423;48.722;9.350;2023-05-23T12:31:10;21.10;99.90
14670;DHT22;7423;48.722;9.350;2023-05-23T12:33:42;21.10;99.90
14670;DHT22;7423;48.722;9.350;2023-05-23T12:36:20;21.00;99.90
14670;DHT22;7423;48.722;9.350;2023-05-23T12:38:50;21.10;99.90
14670;DHT22;7423;48.722;9.350;2023-05-23T12:41:18;21.10;99.90
14670;DHT22;7423;48.722;9.350;2023-05-23T12:43:50;21.00;99.90
14670;DHT22;7423;48.722;9.350;2023-05-23T12:46:25;21.10;99.90
14670;DHT22;7423;48.722;9.350;2023-05-23T12:48:53;21.10;99.90
14670;DHT22;7423;48.722;9.350;2023-05-23T12:51:20;21.30;99.90
14670;DHT22;7423;48.722;9.350;2023-05-23T12:53:48;21.30;99.90
14670;DHT22;7423;48.722;9.350;2023-05-23T12:56:15;21.30;99.90
14670;DHT22;7423;48.722;9.350;2023-05-23T12:58:42;21.40;99.90
14670;DHT22;7423;48.722;9.350;2023-05-23T13:01:09;22.20;99.90
14670;DHT22;7423;48.722;9.350;2023-05-23T13:03:37;21.40;99.90
14670;DHT22;7423;48.722;9.350;2023-05-23T13:06:04;21.50;99.90
14670;DHT22;7423;48.722;9.350;2023-05-23T13:08:32;21.50;99.90
14670;DHT22;7423;48.722;9.350;2023-05-23T13:10:59;21.60;99.90
14670;DHT22;7423;48.722;9.350;2023-05-23T13:13:26;21.60;99.90
14670;DHT22;7423;48.722;9.350;2023-05-23T13:15:53;21.70;99.90
14670;DHT22;7423;48.722;9.350;2023-05-23T13:18:20;21.70;99.90
14670;DHT22;7423;48.722;9.350;2023-05-23T13:20:47;21.80;99.90
14670;DHT22;7423;48.722;9.350;2023-05-23T13:23:14;21.70;99.90
14670;DHT22;7423;48.722;9.350;2023-05-23T13:25:41;21.60;99.90
14670;DHT22;7423;48.722;9.350;2023-05-23T13:28:08;21.70;99.90
14670;DHT22;7423;48.722;9.350;2023-05-23T13:30:35;21.80;99.90
14670;DHT22;7423;48.722;9.350;2023-05-23T13:33:02;21.80;99.90
14670;DHT22;7423;48.722;9.350;2023-05-23T13:35:30;21.90;99.90
14670;DHT22;7423;48.722;9.350;2023-05-23T13:37:57;21.90;99.90
14670;DHT22;7423;48.722;9.350;2023-05-23T13:40:24;21.90;99.90
14670;DHT22;7423;48.722;9.350;2023-05-23T13:42:51;22.00;99.90
14670;DHT22;7423;48.722;9.350;2023-05-23T13:45:19;22.20;99.90
14670;DHT22;7423;48.722;9.350;2023-05-23T13:47:48;22.10;99.90
14670;DHT22;7423;48.722;9.350;2023-05-23T13:50:15;22.10;99.90
14670;DHT22;7423;48.722;9.350;2023-05-23T13:52:42;22.00;99.90
14670;DHT22;7423;48.722;9.350;2023-05-23T13:55:12;21.90;99.90
14670;DHT22;7423;48.722;9.350;2023-05-23T13:57:39;21.90;99.90
14670;DHT22;7423;48.722;9.350;2023-05-23T14:00:07;21.80;99.90
14670;DHT22;7423;48.722;9.350;2023-05-23T14:02:34;21.70;99.90
14670;DHT22;7423;48.722;9.350;2023-05-23T14:05:01;21.60;99.90
14670;DHT22;7423;48.722;9.350;2023-05-23T14:07:29;21.50;99.90
14670;DHT22;7423;48.722;9.350;2023-05-23T14:09:56;21.10;99.90
14670;DHT22;7423;48.722;9.350;2023-05-23T14:12:23;21.00;99.90
14670;DHT22;7423;48.722;9.350;2023-05-23T14:14:51;21.30;99.90
14670;DHT22;7423;48.722;9.350;2023-05-23T14:17:18;21.10;99.90
14670;DHT22;7423;48.722;9.350;2023-05-23T14:19:45;21.10;99.90
14670;DHT22;7423;48.722;9.350;2023-05-23T14:22:13;21.30;99.90
14670;DHT22;7423;48.722;9.350;2023-05-23T14:24:40;21.50;99.90
14670;DHT22;7423;48.722;9.350;2023-05-23T14:27:07;21.50;99.90
14670;DHT22;7423;48.722;9.350;2023-05-23T14:29:37;21.40;99.90
14670;DHT22;7423;48.722;9.350;2023-05-23T14:32:04;21.30;99.90
14670;DHT22;7423;48.722;9.350;2023-05-23T14:34:31;21.20;99.90
14670;DHT22;7423;48.722;9.350;2023-05-23T14:36:59;21.10;99.90
14670;DHT22;7423;48.722;9.350;2023-05-23T14:39:26;21.20;99.90
14670;DHT22;7423;48.722;9.350;2023-05-23T14:41:54;21.20;99.90
14670;DHT22;7423;48.722;9.350;2023-05-23T14:44:21;21.30;99.90
14670;DHT22;7423;48.722;9.350;2023-05-23T14:46:48;21.30;99.90
14670;DHT22;7423;48.722;9.350;2023-05-23T14:49:16;21.30;99.90
14670;DHT22;7423;48.722;9.350;2023-05-23T14:51:43;21.40;99.90
14670;DHT22;7423;48.722;9.350;2023-05-23T14:54:16;21.40;99.90
14670;DHT22;7423;48.722;9.350;2023-05-23T14:56:43;21.40;99.90
14670;DHT22;7423;48.722;9.350;2023-05-23T14:59:10;21.40;99.90
14670;DHT22;7423;48.722;9.350;2023-05-23T15:01:37;21.30;99.90
14670;DHT22;7423;48.722;9.350;2023-05-23T15:04:06;21.20;99.90
14670;DHT22;7423;48.722;9.350;2023-05-23T15:06:37;21.40;99.90
14670;DHT22;7423;48.722;9.350;2023-05-23T15:09:05;21.40;99.90
14670;DHT22;7423;48.722;9.350;2023-05-23T15:11:32;21.40;99.90
14670;DHT22;7423;48.722;9.350;2023-05-23T15:14:04;21.50;99.90
14670;DHT22;7423;48.722;9.350;2023-05-23T15:16:31;21.60;99.90
14670;DHT22;7423;48.722;9.350;2023-05-23T15:18:59;21.50;99.90
14670;DHT22;7423;48.722;9.350;2023-05-23T15:21:26;21.50;99.90
14670;DHT22;7423;48.722;9.350;2023-05-23T15:23:53;21.60;99.90
14670;DHT22;7423;48.722;9.350;2023-05-23T15:26:20;21.40;99.90
14670;DHT22;7423;48.722;9.350;2023-05-23T15:28:48;21.50;99.90
14670;DHT22;7423;48.722;9.350;2023-05-23T15:31:15;21.50;99.90
14670;DHT22;7423;48.722;9.350;2023-05-23T15:33:41;21.60;99.90
14670;DHT22;7423;48.722;9.350;2023-05-23T15:36:09;21.70;99.90
14670;DHT22;7423;48.722;9.350;2023-05-23T15:38:35;21.50;99.90
14670;DHT22;7423;48.722;9.350;2023-05-23T15:41:02;21.50;99.90
14670;DHT22;7423;48.722;9.350;2023-05-23T15:43:31;21.60;99.90
14670;DHT22;7423;48.722;9.350;2023-05-23T15:45:58;21.70;99.90
14670;DHT22;7423;48.722;9.350;2023-05-23T15:48:26;21.70;99.90
14670;DHT22;7423;48.722;9.350;2023-05-23T15:50:53;21.70;99.90
14670;DHT22;7423;48.722;9.350;2023-05-23T15:53:20;21.60;99.90
14670;DHT22;7423;48.722;9.350;2023-05-23T15:55:47;21.50;99.90
14670;DHT22;7423;48.722;9.350;2023-05-23T15:58:14;21.60;99.90
14670;DHT22;7423;48.722;9.350;2023-05-23T16:00:41;21.60;99.90
14670;DHT22;7423;48.722;9.350;2023-05-23T16:03:08;21.40;99.90
14670;DHT22;7423;48.722;9.350;2023-05-23T16:05:35;21.60;99.90
14670;DHT22;7423;48.722;9.350;2023-05-23T16:08:03;21.80;99.90
14670;DHT22;7423;48.722;9.350;2023-05-23T16:10:30;21.70;99.90
14670;DHT22;7423;48.722;9.350;2023-05-23T16:12:57;21.60;99.90
14670;DHT22;7423;48.722;9.350;2023-05-23T16:15:26;21.60;99.90
14670;DHT22;7423;48.722;9.350;2023-05-23T16:17:53;21.60;99.90
14670;DHT22;7423;48.722;9.350;2023-05-23T16:20:22;22.60;99.90